DLH7MR EDDF-EPGD
Flight info
| Callsign | DLH7MR |
|---|---|
| Flight time | 1h 12m |
| Altitude | 31000 |
| Route | TOBAK3W/25C TOBAK N858 FEDZA/N0427F370 Y172 MAG DCT BODLA DCT VAVUN L730 KOSEX |
| Aircraft | A319/M-SDE2E3FGIJ1LORWXYZ/HB1 |
Departure
| Time | 2026-05-05 11:33 |
|---|---|
| Airport | Frankfurt Main Airport (EDDF) |
Arrival
| Time | 2026-05-05 12:45 |
|---|---|
| Airport | Gdańsk Lech Wałęsa Airport (EPGD) |
| Time | Latitude | Longitude | Altitude | Speed | Heading |
|---|---|---|---|---|---|
| 2026-05-05 11:13 | 50.04079 | 8.55748 | 366 ft | 0 kts | 159° |
| 2026-05-05 11:25 | 50.04078 | 8.55748 | 362 ft | 0 kts | 159° |
| 2026-05-05 11:25 | 50.04070 | 8.55753 | 362 ft | 3 kts | 159° |
| 2026-05-05 11:26 | 50.04036 | 8.55773 | 362 ft | 7 kts | 159° |
| 2026-05-05 11:26 | 50.04017 | 8.55833 | 356 ft | 7 kts | 71° |
| 2026-05-05 11:26 | 50.04038 | 8.55907 | 356 ft | 8 kts | 69° |
| 2026-05-05 11:26 | 50.04063 | 8.56011 | 358 ft | 13 kts | 70° |
| 2026-05-05 11:27 | 50.04095 | 8.56147 | 358 ft | 14 kts | 69° |
| 2026-05-05 11:27 | 50.04130 | 8.56291 | 358 ft | 15 kts | 70° |
| 2026-05-05 11:27 | 50.04166 | 8.56443 | 357 ft | 15 kts | 70° |
| 2026-05-05 11:27 | 50.04204 | 8.56601 | 358 ft | 16 kts | 70° |
| 2026-05-05 11:28 | 50.04243 | 8.56763 | 359 ft | 16 kts | 70° |
| 2026-05-05 11:28 | 50.04283 | 8.56931 | 357 ft | 17 kts | 70° |
| 2026-05-05 11:28 | 50.04324 | 8.57106 | 357 ft | 18 kts | 70° |
| 2026-05-05 11:28 | 50.04368 | 8.57287 | 358 ft | 18 kts | 69° |
| 2026-05-05 11:29 | 50.04413 | 8.57475 | 359 ft | 17 kts | 70° |
| 2026-05-05 11:29 | 50.04420 | 8.57611 | 357 ft | 11 kts | 117° |
| 2026-05-05 11:29 | 50.04370 | 8.57665 | 358 ft | 6 kts | 159° |
| 2026-05-05 11:29 | 50.04365 | 8.57669 | 358 ft | 0 kts | 159° |
| 2026-05-05 11:31 | 50.04364 | 8.57669 | 358 ft | 0 kts | 159° |
| 2026-05-05 11:31 | 50.04356 | 8.57673 | 358 ft | 3 kts | 159° |
| 2026-05-05 11:31 | 50.04329 | 8.57690 | 357 ft | 6 kts | 159° |
| 2026-05-05 11:32 | 50.04285 | 8.57697 | 361 ft | 7 kts | 211° |
| 2026-05-05 11:32 | 50.04256 | 8.57624 | 357 ft | 13 kts | 250° |
| 2026-05-05 11:32 | 50.04134 | 8.57115 | 362 ft | 90 kts | 249° |
| 2026-05-05 11:32 | 50.03832 | 8.55854 | 354 ft | 155 kts | 250° |
| 2026-05-05 11:33 | 50.03433 | 8.54192 | 863 ft | 164 kts | 249° |
| 2026-05-05 11:33 | 50.03027 | 8.52520 | 1606 ft | 166 kts | 249° |
| 2026-05-05 11:33 | 50.02606 | 8.50778 | 2193 ft | 182 kts | 248° |
| 2026-05-05 11:33 | 50.01860 | 8.49085 | 2707 ft | 201 kts | 219° |
| 2026-05-05 11:34 | 50.00583 | 8.48102 | 3415 ft | 210 kts | 194° |
| 2026-05-05 11:34 | 49.99134 | 8.47782 | 4274 ft | 214 kts | 187° |
| 2026-05-05 11:34 | 49.97674 | 8.47474 | 5368 ft | 209 kts | 188° |
| 2026-05-05 11:34 | 49.96237 | 8.47124 | 6305 ft | 210 kts | 190° |
| 2026-05-05 11:35 | 49.94789 | 8.46497 | 6916 ft | 226 kts | 197° |
| 2026-05-05 11:35 | 49.93224 | 8.45711 | 7487 ft | 245 kts | 197° |
| 2026-05-05 11:35 | 49.91700 | 8.44428 | 8276 ft | 258 kts | 222° |
| 2026-05-05 11:35 | 49.90736 | 8.42069 | 9207 ft | 266 kts | 252° |
| 2026-05-05 11:36 | 49.90678 | 8.39187 | 10169 ft | 275 kts | 283° |
| 2026-05-05 11:36 | 49.91630 | 8.36595 | 11112 ft | 284 kts | 315° |
| 2026-05-05 11:36 | 49.93333 | 8.35028 | 12024 ft | 290 kts | 336° |
| 2026-05-05 11:36 | 49.95271 | 8.33790 | 12415 ft | 313 kts | 337° |
| 2026-05-05 11:37 | 49.97341 | 8.32497 | 12727 ft | 336 kts | 337° |
| 2026-05-05 11:37 | 49.99553 | 8.31093 | 13095 ft | 350 kts | 337° |
| 2026-05-05 11:37 | 50.01825 | 8.29710 | 13970 ft | 353 kts | 342° |
| 2026-05-05 11:37 | 50.04257 | 8.29008 | 14728 ft | 358 kts | 356° |
| 2026-05-05 11:38 | 50.06752 | 8.29148 | 15467 ft | 362 kts | 8° |
| 2026-05-05 11:38 | 50.09214 | 8.30070 | 16139 ft | 367 kts | 20° |
| 2026-05-05 11:38 | 50.11585 | 8.31618 | 16795 ft | 373 kts | 22° |
| 2026-05-05 11:38 | 50.14038 | 8.33018 | 17486 ft | 378 kts | 18° |
| 2026-05-05 11:39 | 50.16568 | 8.34229 | 18174 ft | 383 kts | 17° |
| 2026-05-05 11:39 | 50.19139 | 8.35394 | 18829 ft | 387 kts | 17° |
| 2026-05-05 11:39 | 50.21687 | 8.36595 | 19493 ft | 389 kts | 18° |
| 2026-05-05 11:39 | 50.24272 | 8.37887 | 20160 ft | 392 kts | 18° |
| 2026-05-05 11:40 | 50.26863 | 8.39273 | 20791 ft | 395 kts | 22° |
| 2026-05-05 11:40 | 50.29322 | 8.41230 | 21395 ft | 398 kts | 33° |
| 2026-05-05 11:40 | 50.31533 | 8.43852 | 22004 ft | 401 kts | 43° |
| 2026-05-05 11:40 | 50.33617 | 8.46780 | 22610 ft | 404 kts | 43° |
| 2026-05-05 11:41 | 50.35726 | 8.49718 | 23229 ft | 408 kts | 43° |
| 2026-05-05 11:41 | 50.37856 | 8.52675 | 23747 ft | 412 kts | 43° |
| 2026-05-05 11:41 | 50.39988 | 8.55630 | 24237 ft | 416 kts | 43° |
| 2026-05-05 11:41 | 50.42165 | 8.58648 | 24709 ft | 420 kts | 43° |
| 2026-05-05 11:42 | 50.44365 | 8.61704 | 25157 ft | 424 kts | 43° |
| 2026-05-05 11:42 | 50.46598 | 8.64761 | 25598 ft | 428 kts | 41° |
| 2026-05-05 11:42 | 50.48884 | 8.67795 | 26029 ft | 433 kts | 40° |
| 2026-05-05 11:42 | 50.51214 | 8.70826 | 26462 ft | 437 kts | 40° |
| 2026-05-05 11:43 | 50.53567 | 8.73873 | 26896 ft | 440 kts | 40° |
| 2026-05-05 11:43 | 50.55862 | 8.77088 | 27322 ft | 443 kts | 47° |
| 2026-05-05 11:43 | 50.57828 | 8.80838 | 27735 ft | 446 kts | 57° |
| 2026-05-05 11:43 | 50.59396 | 8.84971 | 28149 ft | 448 kts | 63° |
| 2026-05-05 11:44 | 50.60890 | 8.89296 | 28576 ft | 451 kts | 63° |
| 2026-05-05 11:44 | 50.62406 | 8.93651 | 28983 ft | 455 kts | 63° |
| 2026-05-05 11:44 | 50.63939 | 8.98035 | 29387 ft | 459 kts | 63° |
| 2026-05-05 11:44 | 50.65485 | 9.02460 | 29802 ft | 462 kts | 63° |
| 2026-05-05 11:45 | 50.67035 | 9.06922 | 30150 ft | 466 kts | 63° |
| 2026-05-05 11:45 | 50.68591 | 9.11427 | 30486 ft | 469 kts | 63° |
| 2026-05-05 11:45 | 50.70151 | 9.15963 | 30820 ft | 473 kts | 63° |
| 2026-05-05 11:45 | 50.71720 | 9.20537 | 31142 ft | 476 kts | 63° |
| 2026-05-05 11:46 | 50.73243 | 9.25112 | 31457 ft | 479 kts | 64° |
| 2026-05-05 11:46 | 50.74741 | 9.29808 | 31889 ft | 478 kts | 65° |
| 2026-05-05 11:46 | 50.76204 | 9.34529 | 32345 ft | 478 kts | 66° |
| 2026-05-05 11:46 | 50.77652 | 9.39255 | 32806 ft | 478 kts | 66° |
| 2026-05-05 11:47 | 50.79101 | 9.43985 | 33262 ft | 478 kts | 66° |
| 2026-05-05 11:47 | 50.80558 | 9.48711 | 33717 ft | 479 kts | 66° |
| 2026-05-05 11:47 | 50.82024 | 9.53438 | 34127 ft | 479 kts | 66° |
| 2026-05-05 11:47 | 50.83494 | 9.58162 | 34535 ft | 478 kts | 65° |
| 2026-05-05 11:48 | 50.86407 | 9.67513 | 35333 ft | 476 kts | 65° |
| 2026-05-05 11:48 | 50.87871 | 9.72213 | 35716 ft | 475 kts | 65° |
| 2026-05-05 11:48 | 50.89326 | 9.76909 | 36087 ft | 475 kts | 66° |
| 2026-05-05 11:49 | 50.90772 | 9.81603 | 36450 ft | 474 kts | 66° |
| 2026-05-05 11:49 | 50.92213 | 9.86300 | 36775 ft | 474 kts | 66° |
| 2026-05-05 11:49 | 50.95066 | 9.95651 | 36864 ft | 468 kts | 66° |
| 2026-05-05 11:50 | 50.97871 | 10.04870 | 36861 ft | 467 kts | 66° |
| 2026-05-05 11:50 | 51.00688 | 10.14157 | 36868 ft | 467 kts | 66° |
| 2026-05-05 11:51 | 51.03496 | 10.23457 | 36866 ft | 467 kts | 66° |
| 2026-05-05 11:51 | 51.06520 | 10.32582 | 36868 ft | 468 kts | 53° |
| 2026-05-05 11:52 | 51.08703 | 10.36406 | 36873 ft | 467 kts | 40° |
| 2026-05-05 11:52 | 51.11227 | 10.39521 | 36866 ft | 465 kts | 31° |
| 2026-05-05 11:52 | 51.16675 | 10.45086 | 36876 ft | 466 kts | 31° |
| 2026-05-05 11:53 | 51.22047 | 10.50864 | 36877 ft | 466 kts | 32° |
| 2026-05-05 11:53 | 51.27410 | 10.56676 | 36872 ft | 466 kts | 32° |
| 2026-05-05 11:54 | 51.32792 | 10.62428 | 36879 ft | 465 kts | 31° |
| 2026-05-05 11:54 | 51.38151 | 10.68121 | 36883 ft | 466 kts | 32° |
| 2026-05-05 11:55 | 51.43410 | 10.74190 | 36874 ft | 466 kts | 35° |
| 2026-05-05 11:55 | 51.48536 | 10.80575 | 36891 ft | 466 kts | 36° |
| 2026-05-05 11:56 | 51.53472 | 10.87333 | 36885 ft | 468 kts | 46° |
| 2026-05-05 11:56 | 51.57611 | 10.95336 | 36877 ft | 469 kts | 50° |
| 2026-05-05 11:57 | 51.61732 | 11.03465 | 36880 ft | 469 kts | 50° |
| 2026-05-05 11:57 | 51.65844 | 11.11617 | 36882 ft | 469 kts | 50° |
| 2026-05-05 11:58 | 51.69949 | 11.19797 | 36884 ft | 469 kts | 50° |
| 2026-05-05 11:58 | 51.74041 | 11.27980 | 36893 ft | 468 kts | 50° |
| 2026-05-05 11:59 | 51.78103 | 11.36115 | 36905 ft | 468 kts | 50° |
| 2026-05-05 11:59 | 51.82189 | 11.44306 | 36887 ft | 468 kts | 50° |
| 2026-05-05 12:00 | 51.86269 | 11.52520 | 36889 ft | 468 kts | 50° |
| 2026-05-05 12:00 | 51.90335 | 11.60749 | 36884 ft | 468 kts | 50° |
| 2026-05-05 12:01 | 51.94359 | 11.68940 | 36881 ft | 468 kts | 50° |
| 2026-05-05 12:01 | 51.98417 | 11.77205 | 36885 ft | 468 kts | 50° |
| 2026-05-05 12:02 | 52.02509 | 11.85428 | 36870 ft | 468 kts | 49° |
| 2026-05-05 12:02 | 52.06698 | 11.93514 | 36872 ft | 468 kts | 48° |
| 2026-05-05 12:03 | 52.10898 | 12.01613 | 36881 ft | 469 kts | 49° |
| 2026-05-05 12:03 | 52.15037 | 12.09711 | 36886 ft | 469 kts | 49° |
| 2026-05-05 12:04 | 52.19189 | 12.17896 | 36886 ft | 469 kts | 49° |
| 2026-05-05 12:04 | 52.23342 | 12.26096 | 36892 ft | 469 kts | 49° |
| 2026-05-05 12:05 | 52.27486 | 12.34296 | 36894 ft | 468 kts | 49° |
| 2026-05-05 12:05 | 52.31594 | 12.42455 | 36896 ft | 468 kts | 49° |
| 2026-05-05 12:06 | 52.35723 | 12.50675 | 36900 ft | 468 kts | 49° |
| 2026-05-05 12:06 | 52.39845 | 12.58914 | 36895 ft | 467 kts | 49° |
| 2026-05-05 12:07 | 52.43955 | 12.67161 | 36896 ft | 467 kts | 49° |
| 2026-05-05 12:07 | 52.48035 | 12.75357 | 36897 ft | 467 kts | 49° |
| 2026-05-05 12:08 | 52.52131 | 12.83621 | 36893 ft | 466 kts | 49° |
| 2026-05-05 12:08 | 52.56217 | 12.91900 | 36892 ft | 466 kts | 49° |
| 2026-05-05 12:09 | 52.60295 | 13.00185 | 36895 ft | 466 kts | 49° |
| 2026-05-05 12:09 | 52.64341 | 13.08420 | 36894 ft | 466 kts | 49° |
| 2026-05-05 12:10 | 52.68398 | 13.16720 | 36892 ft | 465 kts | 49° |
| 2026-05-05 12:10 | 52.72454 | 13.25050 | 36889 ft | 465 kts | 49° |
| 2026-05-05 12:11 | 52.76498 | 13.33379 | 36882 ft | 465 kts | 50° |
| 2026-05-05 12:11 | 52.80538 | 13.41720 | 36885 ft | 465 kts | 50° |
| 2026-05-05 12:12 | 52.84544 | 13.50023 | 36890 ft | 465 kts | 50° |
| 2026-05-05 12:12 | 52.88580 | 13.58403 | 36891 ft | 466 kts | 50° |
| 2026-05-05 12:13 | 52.92608 | 13.66814 | 36891 ft | 466 kts | 50° |
| 2026-05-05 12:13 | 52.96636 | 13.75239 | 36895 ft | 466 kts | 50° |
| 2026-05-05 12:14 | 53.00636 | 13.83624 | 36894 ft | 467 kts | 50° |
| 2026-05-05 12:14 | 53.04655 | 13.92100 | 36898 ft | 467 kts | 50° |
| 2026-05-05 12:15 | 53.08667 | 14.00597 | 36899 ft | 467 kts | 50° |
| 2026-05-05 12:15 | 53.12679 | 14.09107 | 36896 ft | 467 kts | 50° |
| 2026-05-05 12:16 | 53.16662 | 14.17572 | 36897 ft | 468 kts | 50° |
| 2026-05-05 12:16 | 53.20666 | 14.26127 | 36901 ft | 468 kts | 50° |
| 2026-05-05 12:17 | 53.24659 | 14.34699 | 36902 ft | 468 kts | 50° |
| 2026-05-05 12:17 | 53.28157 | 14.43856 | 36901 ft | 469 kts | 66° |
| 2026-05-05 12:18 | 53.30446 | 14.53990 | 36902 ft | 470 kts | 70° |
| 2026-05-05 12:18 | 53.32697 | 14.64247 | 36906 ft | 470 kts | 70° |
| 2026-05-05 12:19 | 53.34943 | 14.74517 | 36903 ft | 470 kts | 70° |
| 2026-05-05 12:19 | 53.37175 | 14.84794 | 36906 ft | 470 kts | 70° |
| 2026-05-05 12:20 | 53.39384 | 14.95031 | 36915 ft | 470 kts | 70° |
| 2026-05-05 12:20 | 53.41593 | 15.05340 | 36912 ft | 470 kts | 70° |
| 2026-05-05 12:21 | 53.43791 | 15.15662 | 36794 ft | 471 kts | 70° |
| 2026-05-05 12:21 | 53.44893 | 15.20835 | 36535 ft | 470 kts | 70° |
| 2026-05-05 12:21 | 53.45989 | 15.26006 | 36277 ft | 470 kts | 71° |
| 2026-05-05 12:22 | 53.47082 | 15.31176 | 35964 ft | 470 kts | 71° |
| 2026-05-05 12:22 | 53.48165 | 15.36327 | 34851 ft | 481 kts | 71° |
| 2026-05-05 12:22 | 53.49271 | 15.41714 | 33604 ft | 495 kts | 72° |
| 2026-05-05 12:22 | 53.50365 | 15.47183 | 33033 ft | 490 kts | 72° |
| 2026-05-05 12:23 | 53.51593 | 15.52469 | 32564 ft | 482 kts | 64° |
| 2026-05-05 12:23 | 53.53277 | 15.57298 | 32021 ft | 477 kts | 55° |
| 2026-05-05 12:23 | 53.55125 | 15.61901 | 31448 ft | 473 kts | 55° |
| 2026-05-05 12:23 | 53.56959 | 15.66469 | 30878 ft | 470 kts | 55° |
| 2026-05-05 12:24 | 53.58780 | 15.71012 | 30332 ft | 466 kts | 55° |
| 2026-05-05 12:24 | 53.60586 | 15.75525 | 29758 ft | 464 kts | 56° |
| 2026-05-05 12:24 | 53.62354 | 15.79952 | 29157 ft | 460 kts | 56° |
| 2026-05-05 12:24 | 53.64133 | 15.84416 | 28572 ft | 456 kts | 56° |
| 2026-05-05 12:25 | 53.65896 | 15.88837 | 28003 ft | 453 kts | 56° |
| 2026-05-05 12:25 | 53.67643 | 15.93230 | 27464 ft | 449 kts | 56° |
| 2026-05-05 12:25 | 53.69371 | 15.97593 | 26941 ft | 446 kts | 56° |
| 2026-05-05 12:25 | 53.71088 | 16.01935 | 26429 ft | 443 kts | 56° |
| 2026-05-05 12:26 | 53.72793 | 16.06251 | 25933 ft | 440 kts | 56° |
| 2026-05-05 12:26 | 53.74483 | 16.10537 | 25451 ft | 437 kts | 56° |
| 2026-05-05 12:26 | 53.76137 | 16.14743 | 25016 ft | 435 kts | 57° |
| 2026-05-05 12:26 | 53.77806 | 16.18991 | 24594 ft | 432 kts | 57° |
| 2026-05-05 12:27 | 53.79460 | 16.23212 | 24191 ft | 430 kts | 57° |
| 2026-05-05 12:27 | 53.81105 | 16.27416 | 23786 ft | 427 kts | 57° |
| 2026-05-05 12:27 | 53.82742 | 16.31598 | 23356 ft | 425 kts | 57° |
| 2026-05-05 12:27 | 53.84369 | 16.35762 | 22901 ft | 422 kts | 57° |
| 2026-05-05 12:28 | 53.85978 | 16.39898 | 22454 ft | 419 kts | 57° |
| 2026-05-05 12:28 | 53.87575 | 16.44007 | 22030 ft | 416 kts | 57° |
| 2026-05-05 12:28 | 53.89111 | 16.48132 | 21586 ft | 412 kts | 63° |
| 2026-05-05 12:28 | 53.90114 | 16.52631 | 21151 ft | 406 kts | 75° |
| 2026-05-05 12:29 | 53.90944 | 16.57130 | 20704 ft | 404 kts | 73° |
| 2026-05-05 12:29 | 53.91886 | 16.61602 | 20249 ft | 401 kts | 70° |
| 2026-05-05 12:29 | 53.92896 | 16.65991 | 19810 ft | 398 kts | 69° |
| 2026-05-05 12:29 | 53.93934 | 16.70331 | 19374 ft | 395 kts | 69° |
| 2026-05-05 12:30 | 53.94966 | 16.74632 | 18946 ft | 392 kts | 69° |
| 2026-05-05 12:30 | 53.95973 | 16.78908 | 18521 ft | 389 kts | 69° |
| 2026-05-05 12:30 | 53.96954 | 16.83174 | 18098 ft | 386 kts | 70° |
| 2026-05-05 12:30 | 53.97911 | 16.87410 | 17642 ft | 383 kts | 70° |
| 2026-05-05 12:31 | 53.98854 | 16.91621 | 17161 ft | 380 kts | 70° |
| 2026-05-05 12:31 | 53.99771 | 16.95742 | 16735 ft | 377 kts | 70° |
| 2026-05-05 12:31 | 54.00695 | 16.99889 | 16300 ft | 374 kts | 70° |
| 2026-05-05 12:31 | 54.01613 | 17.04003 | 15880 ft | 371 kts | 70° |
| 2026-05-05 12:32 | 54.02523 | 17.08087 | 15483 ft | 368 kts | 70° |
| 2026-05-05 12:32 | 54.03429 | 17.12142 | 15068 ft | 365 kts | 70° |
| 2026-05-05 12:32 | 54.04333 | 17.16162 | 14665 ft | 363 kts | 69° |
| 2026-05-05 12:32 | 54.05530 | 17.19876 | 14415 ft | 355 kts | 51° |
| 2026-05-05 12:33 | 54.06591 | 17.21973 | 14255 ft | 350 kts | 47° |
| 2026-05-05 12:33 | 54.08198 | 17.25040 | 14009 ft | 344 kts | 47° |
| 2026-05-05 12:33 | 54.10283 | 17.29028 | 13706 ft | 337 kts | 47° |
| 2026-05-05 12:33 | 54.11833 | 17.31997 | 13437 ft | 334 kts | 47° |
| 2026-05-05 12:34 | 54.12874 | 17.33991 | 13256 ft | 332 kts | 47° |
| 2026-05-05 12:34 | 54.14904 | 17.37882 | 12900 ft | 331 kts | 47° |
| 2026-05-05 12:34 | 54.15916 | 17.39819 | 12728 ft | 330 kts | 47° |
| 2026-05-05 12:34 | 54.17437 | 17.42731 | 12470 ft | 329 kts | 47° |
| 2026-05-05 12:35 | 54.18952 | 17.45646 | 12213 ft | 327 kts | 48° |
| 2026-05-05 12:35 | 54.20456 | 17.48555 | 11959 ft | 326 kts | 48° |
| 2026-05-05 12:35 | 54.22438 | 17.52392 | 11626 ft | 324 kts | 48° |
| 2026-05-05 12:35 | 54.23928 | 17.55273 | 11374 ft | 323 kts | 48° |
| 2026-05-05 12:36 | 54.25413 | 17.58137 | 11121 ft | 321 kts | 48° |
| 2026-05-05 12:36 | 54.26394 | 17.60029 | 10963 ft | 321 kts | 48° |
| 2026-05-05 12:36 | 54.27871 | 17.62880 | 10716 ft | 319 kts | 48° |
| 2026-05-05 12:36 | 54.29339 | 17.65722 | 10466 ft | 318 kts | 48° |
| 2026-05-05 12:37 | 54.30799 | 17.68564 | 10237 ft | 317 kts | 48° |
| 2026-05-05 12:37 | 54.32251 | 17.71397 | 9990 ft | 316 kts | 49° |
| 2026-05-05 12:37 | 54.34145 | 17.75102 | 9619 ft | 309 kts | 49° |
| 2026-05-05 12:37 | 54.35561 | 17.77873 | 9201 ft | 309 kts | 49° |
| 2026-05-05 12:38 | 54.36516 | 17.79744 | 8895 ft | 309 kts | 49° |
| 2026-05-05 12:38 | 54.37934 | 17.82520 | 8435 ft | 309 kts | 49° |
| 2026-05-05 12:38 | 54.39324 | 17.85242 | 8093 ft | 306 kts | 49° |
| 2026-05-05 12:38 | 54.40726 | 17.87983 | 7677 ft | 305 kts | 48° |
| 2026-05-05 12:39 | 54.42125 | 17.90711 | 7341 ft | 302 kts | 48° |
| 2026-05-05 12:39 | 54.43522 | 17.93428 | 6712 ft | 309 kts | 48° |
| 2026-05-05 12:39 | 54.44958 | 17.96230 | 6106 ft | 312 kts | 49° |
| 2026-05-05 12:39 | 54.46362 | 17.99036 | 5660 ft | 307 kts | 49° |
| 2026-05-05 12:40 | 54.47528 | 18.02062 | 5102 ft | 302 kts | 70° |
| 2026-05-05 12:40 | 54.47725 | 18.05540 | 4723 ft | 289 kts | 101° |
| 2026-05-05 12:40 | 54.46995 | 18.08633 | 4459 ft | 272 kts | 120° |
| 2026-05-05 12:40 | 54.46206 | 18.11451 | 4213 ft | 258 kts | 114° |
| 2026-05-05 12:41 | 54.45551 | 18.14246 | 3888 ft | 247 kts | 112° |
| 2026-05-05 12:41 | 54.44953 | 18.16949 | 3586 ft | 236 kts | 112° |
| 2026-05-05 12:41 | 54.44369 | 18.19532 | 3424 ft | 228 kts | 112° |
| 2026-05-05 12:41 | 54.43777 | 18.22006 | 3300 ft | 219 kts | 114° |
| 2026-05-05 12:42 | 54.43184 | 18.24384 | 3086 ft | 216 kts | 114° |
| 2026-05-05 12:42 | 54.42606 | 18.26743 | 2849 ft | 213 kts | 113° |
| 2026-05-05 12:42 | 54.42038 | 18.29071 | 2659 ft | 209 kts | 113° |
| 2026-05-05 12:42 | 54.41505 | 18.31263 | 2543 ft | 197 kts | 112° |
| 2026-05-05 12:43 | 54.40988 | 18.33398 | 2235 ft | 190 kts | 112° |
| 2026-05-05 12:43 | 54.40502 | 18.35417 | 1924 ft | 171 kts | 112° |
| 2026-05-05 12:43 | 54.40071 | 18.37207 | 1614 ft | 155 kts | 111° |
| 2026-05-05 12:43 | 54.39674 | 18.38836 | 1355 ft | 142 kts | 111° |
| 2026-05-05 12:44 | 54.39301 | 18.40328 | 1144 ft | 132 kts | 111° |
| 2026-05-05 12:44 | 54.38946 | 18.41760 | 971 ft | 128 kts | 109° |
| 2026-05-05 12:44 | 54.38605 | 18.43157 | 754 ft | 125 kts | 110° |
| 2026-05-05 12:44 | 54.38273 | 18.44534 | 583 ft | 124 kts | 110° |
| 2026-05-05 12:45 | 54.37941 | 18.45866 | 458 ft | 119 kts | 112° |
| 2026-05-05 12:45 | 54.37724 | 18.46751 | 452 ft | 45 kts | 114° |
| 2026-05-05 12:45 | 54.37619 | 18.47188 | 457 ft | 34 kts | 109° |
| 2026-05-05 12:45 | 54.37601 | 18.47545 | 461 ft | 26 kts | 84° |
| 2026-05-05 12:46 | 54.37665 | 18.47703 | 457 ft | 18 kts | 326° |
| 2026-05-05 12:46 | 54.37718 | 18.47496 | 454 ft | 20 kts | 292° |
| 2026-05-05 12:46 | 54.37775 | 18.47269 | 454 ft | 21 kts | 293° |
| 2026-05-05 12:46 | 54.37834 | 18.47030 | 454 ft | 22 kts | 293° |
| 2026-05-05 12:47 | 54.37896 | 18.46781 | 452 ft | 23 kts | 293° |
| 2026-05-05 12:47 | 54.37959 | 18.46525 | 454 ft | 18 kts | 295° |
| 2026-05-05 12:47 | 54.37974 | 18.46531 | 454 ft | 2 kts | 46° |
| 2026-05-05 12:47 | 54.37988 | 18.46558 | 453 ft | 4 kts | 46° |
| 2026-05-05 12:48 | 54.38017 | 18.46600 | 453 ft | 7 kts | 30° |
| 2026-05-05 12:48 | 54.38064 | 18.46641 | 453 ft | 8 kts | 27° |
| 2026-05-05 12:48 | 54.38097 | 18.46666 | 453 ft | 3 kts | 22° |
| 2026-05-05 12:48 | 54.38105 | 18.46672 | 453 ft | 0 kts | 22° |